sensor_id;sensor_type;location;lat;lon;timestamp;temperature;humidity
24382;DHT22;12502;50.678;7.172;2023-02-01T00:02:32;6.00;99.90
24382;DHT22;12502;50.678;7.172;2023-02-01T00:07:34;6.00;99.90
24382;DHT22;12502;50.678;7.172;2023-02-01T00:12:36;5.90;99.90
24382;DHT22;12502;50.678;7.172;2023-02-01T00:17:38;5.90;99.90
24382;DHT22;12502;50.678;7.172;2023-02-01T00:22:39;5.90;99.90
24382;DHT22;12502;50.678;7.172;2023-02-01T00:27:41;5.90;99.90
24382;DHT22;12502;50.678;7.172;2023-02-01T00:32:43;5.90;99.90
24382;DHT22;12502;50.678;7.172;2023-02-01T00:37:44;5.80;99.90
24382;DHT22;12502;50.678;7.172;2023-02-01T00:42:46;5.80;99.90
24382;DHT22;12502;50.678;7.172;2023-02-01T00:47:48;5.80;99.90
24382;DHT22;12502;50.678;7.172;2023-02-01T00:52:49;5.90;99.90
24382;DHT22;12502;50.678;7.172;2023-02-01T00:57:51;5.90;99.90
24382;DHT22;12502;50.678;7.172;2023-02-01T01:02:53;5.90;99.90
24382;DHT22;12502;50.678;7.172;2023-02-01T01:07:55;5.90;99.90
24382;DHT22;12502;50.678;7.172;2023-02-01T01:12:57;5.90;99.90
24382;DHT22;12502;50.678;7.172;2023-02-01T01:17:59;6.00;99.90
24382;DHT22;12502;50.678;7.172;2023-02-01T01:23:02;6.00;99.90
24382;DHT22;12502;50.678;7.172;2023-02-01T01:28:05;6.00;99.90
24382;DHT22;12502;50.678;7.172;2023-02-01T01:33:07;6.00;99.90
24382;DHT22;12502;50.678;7.172;2023-02-01T01:38:10;6.00;99.90
24382;DHT22;12502;50.678;7.172;2023-02-01T01:43:14;6.00;99.90
24382;DHT22;12502;50.678;7.172;2023-02-01T01:53:23;5.90;99.90
24382;DHT22;12502;50.678;7.172;2023-02-01T01:58:27;5.90;99.90
24382;DHT22;12502;50.678;7.172;2023-02-01T02:03:34;5.90;99.90
24382;DHT22;12502;50.678;7.172;2023-02-01T02:08:36;6.00;99.90
24382;DHT22;12502;50.678;7.172;2023-02-01T02:13:42;5.90;99.90
24382;DHT22;12502;50.678;7.172;2023-02-01T02:24:39;5.90;99.90
24382;DHT22;12502;50.678;7.172;2023-02-01T02:40:32;5.90;99.90
24382;DHT22;12502;50.678;7.172;2023-02-01T02:45:43;5.90;99.90
24382;DHT22;12502;50.678;7.172;2023-02-01T02:51:09;5.90;99.90
24382;DHT22;12502;50.678;7.172;2023-02-01T02:56:32;5.90;99.90
24382;DHT22;12502;50.678;7.172;2023-02-01T03:01:53;6.00;99.90
24382;DHT22;12502;50.678;7.172;2023-02-01T03:07:49;6.00;99.90
24382;DHT22;12502;50.678;7.172;2023-02-01T03:12:54;6.00;99.90
24382;DHT22;12502;50.678;7.172;2023-02-01T03:18:06;6.00;99.90
24382;DHT22;12502;50.678;7.172;2023-02-01T03:23:12;6.00;99.90
24382;DHT22;12502;50.678;7.172;2023-02-01T03:28:18;5.90;99.90
24382;DHT22;12502;50.678;7.172;2023-02-01T03:33:25;5.90;99.90
24382;DHT22;12502;50.678;7.172;2023-02-01T03:38:35;6.00;99.90
24382;DHT22;12502;50.678;7.172;2023-02-01T03:48:51;6.00;99.90
24382;DHT22;12502;50.678;7.172;2023-02-01T03:53:54;6.00;99.90
24382;DHT22;12502;50.678;7.172;2023-02-01T03:58:58;6.00;99.90
24382;DHT22;12502;50.678;7.172;2023-02-01T04:04:01;6.00;99.90
24382;DHT22;12502;50.678;7.172;2023-02-01T04:09:03;6.10;99.90
24382;DHT22;12502;50.678;7.172;2023-02-01T04:14:05;6.10;99.90
24382;DHT22;12502;50.678;7.172;2023-02-01T04:19:07;6.10;99.90
24382;DHT22;12502;50.678;7.172;2023-02-01T04:24:09;6.10;99.90
24382;DHT22;12502;50.678;7.172;2023-02-01T04:29:10;6.10;99.90
24382;DHT22;12502;50.678;7.172;2023-02-01T04:34:12;6.10;99.90
24382;DHT22;12502;50.678;7.172;2023-02-01T04:39:14;6.10;99.90
24382;DHT22;12502;50.678;7.172;2023-02-01T04:44:17;6.00;99.90
24382;DHT22;12502;50.678;7.172;2023-02-01T04:49:19;6.00;99.90
24382;DHT22;12502;50.678;7.172;2023-02-01T04:54:22;5.90;99.90
24382;DHT22;12502;50.678;7.172;2023-02-01T04:59:24;5.80;99.90
24382;DHT22;12502;50.678;7.172;2023-02-01T05:04:26;5.80;99.90
24382;DHT22;12502;50.678;7.172;2023-02-01T05:09:28;5.80;99.90
24382;DHT22;12502;50.678;7.172;2023-02-01T05:14:29;5.70;99.90
24382;DHT22;12502;50.678;7.172;2023-02-01T05:19:31;5.60;99.90
24382;DHT22;12502;50.678;7.172;2023-02-01T05:24:34;5.60;99.90
24382;DHT22;12502;50.678;7.172;2023-02-01T05:29:36;5.50;99.90
24382;DHT22;12502;50.678;7.172;2023-02-01T05:34:38;5.50;99.90
24382;DHT22;12502;50.678;7.172;2023-02-01T05:39:39;5.40;99.90
24382;DHT22;12502;50.678;7.172;2023-02-01T05:44:42;5.40;99.90
24382;DHT22;12502;50.678;7.172;2023-02-01T05:49:44;5.30;99.90
24382;DHT22;12502;50.678;7.172;2023-02-01T05:54:46;5.30;99.90
24382;DHT22;12502;50.678;7.172;2023-02-01T05:59:51;5.30;99.90
24382;DHT22;12502;50.678;7.172;2023-02-01T06:04:52;5.30;99.90
24382;DHT22;12502;50.678;7.172;2023-02-01T06:09:54;5.30;99.90
24382;DHT22;12502;50.678;7.172;2023-02-01T06:14:56;5.20;99.90
24382;DHT22;12502;50.678;7.172;2023-02-01T06:19:58;5.10;99.90
24382;DHT22;12502;50.678;7.172;2023-02-01T06:24:59;5.10;99.90
24382;DHT22;12502;50.678;7.172;2023-02-01T06:30:02;5.10;99.90
24382;DHT22;12502;50.678;7.172;2023-02-01T06:35:04;5.10;99.90
24382;DHT22;12502;50.678;7.172;2023-02-01T06:40:07;5.10;99.90
24382;DHT22;12502;50.678;7.172;2023-02-01T06:45:10;5.00;99.90
24382;DHT22;12502;50.678;7.172;2023-02-01T06:50:12;5.00;99.90
24382;DHT22;12502;50.678;7.172;2023-02-01T06:55:14;5.00;99.90
24382;DHT22;12502;50.678;7.172;2023-02-01T07:00:16;5.00;99.90
24382;DHT22;12502;50.678;7.172;2023-02-01T07:05:18;5.00;99.90
24382;DHT22;12502;50.678;7.172;2023-02-01T07:10:20;5.00;99.90
24382;DHT22;12502;50.678;7.172;2023-02-01T07:15:23;5.10;99.90
24382;DHT22;12502;50.678;7.172;2023-02-01T07:20:26;5.10;99.90
24382;DHT22;12502;50.678;7.172;2023-02-01T07:25:27;5.10;99.90
24382;DHT22;12502;50.678;7.172;2023-02-01T07:30:29;5.20;99.90
24382;DHT22;12502;50.678;7.172;2023-02-01T07:35:31;5.20;99.90
24382;DHT22;12502;50.678;7.172;2023-02-01T07:40:33;5.20;99.90
24382;DHT22;12502;50.678;7.172;2023-02-01T07:45:35;5.20;99.90
24382;DHT22;12502;50.678;7.172;2023-02-01T07:50:37;5.30;99.90
24382;DHT22;12502;50.678;7.172;2023-02-01T07:55:40;5.40;99.90
24382;DHT22;12502;50.678;7.172;2023-02-01T08:00:41;5.40;99.90
24382;DHT22;12502;50.678;7.172;2023-02-01T08:06:03;5.40;99.90
24382;DHT22;12502;50.678;7.172;2023-02-01T08:11:06;5.40;99.90
24382;DHT22;12502;50.678;7.172;2023-02-01T08:16:09;5.50;99.90
24382;DHT22;12502;50.678;7.172;2023-02-01T08:21:21;5.60;99.90
24382;DHT22;12502;50.678;7.172;2023-02-01T08:26:25;5.70;99.90
24382;DHT22;12502;50.678;7.172;2023-02-01T08:31:28;5.80;99.90
24382;DHT22;12502;50.678;7.172;2023-02-01T08:36:30;5.80;99.90
24382;DHT22;12502;50.678;7.172;2023-02-01T08:41:32;5.90;99.90
24382;DHT22;12502;50.678;7.172;2023-02-01T08:46:34;5.90;99.90
24382;DHT22;12502;50.678;7.172;2023-02-01T08:51:36;6.00;99.90
24382;DHT22;12502;50.678;7.172;2023-02-01T08:56:38;6.00;99.90
24382;DHT22;12502;50.678;7.172;2023-02-01T09:01:39;6.10;99.90
24382;DHT22;12502;50.678;7.172;2023-02-01T09:06:41;6.20;99.90
24382;DHT22;12502;50.678;7.172;2023-02-01T09:11:43;6.30;99.90
24382;DHT22;12502;50.678;7.172;2023-02-01T09:16:45;6.30;99.90
24382;DHT22;12502;50.678;7.172;2023-02-01T09:21:46;6.40;99.90
24382;DHT22;12502;50.678;7.172;2023-02-01T09:26:48;6.50;99.90
24382;DHT22;12502;50.678;7.172;2023-02-01T09:31:50;6.50;99.90
24382;DHT22;12502;50.678;7.172;2023-02-01T09:37:04;6.50;99.90
24382;DHT22;12502;50.678;7.172;2023-02-01T09:42:56;6.60;99.90
24382;DHT22;12502;50.678;7.172;2023-02-01T09:48:14;6.70;99.90
24382;DHT22;12502;50.678;7.172;2023-02-01T09:58:42;6.70;99.90
24382;DHT22;12502;50.678;7.172;2023-02-01T10:03:46;6.70;99.90
24382;DHT22;12502;50.678;7.172;2023-02-01T10:14:49;6.90;99.90
24382;DHT22;12502;50.678;7.172;2023-02-01T10:20:36;7.00;99.90
24382;DHT22;12502;50.678;7.172;2023-02-01T10:25:55;7.00;99.90
24382;DHT22;12502;50.678;7.172;2023-02-01T10:30:58;7.10;99.90
24382;DHT22;12502;50.678;7.172;2023-02-01T10:46:16;7.40;99.90
24382;DHT22;12502;50.678;7.172;2023-02-01T10:51:51;7.50;99.90
24382;DHT22;12502;50.678;7.172;2023-02-01T10:56:53;7.60;99.90
24382;DHT22;12502;50.678;7.172;2023-02-01T11:02:00;7.70;99.90
24382;DHT22;12502;50.678;7.172;2023-02-01T11:07:20;7.80;99.90
24382;DHT22;12502;50.678;7.172;2023-02-01T11:12:36;8.00;99.90
24382;DHT22;12502;50.678;7.172;2023-02-01T11:17:49;8.00;99.90
24382;DHT22;12502;50.678;7.172;2023-02-01T11:22:57;8.00;99.90
24382;DHT22;12502;50.678;7.172;2023-02-01T11:27:59;8.10;99.90
24382;DHT22;12502;50.678;7.172;2023-02-01T11:33:03;8.20;99.90
24382;DHT22;12502;50.678;7.172;2023-02-01T11:38:28;8.10;99.90
24382;DHT22;12502;50.678;7.172;2023-02-01T11:43:30;8.10;99.90
24382;DHT22;12502;50.678;7.172;2023-02-01T11:48:33;8.10;99.90
24382;DHT22;12502;50.678;7.172;2023-02-01T11:54:00;8.10;99.90
24382;DHT22;12502;50.678;7.172;2023-02-01T12:10:42;8.20;99.90
24382;DHT22;12502;50.678;7.172;2023-02-01T12:15:40;8.20;99.90
24382;DHT22;12502;50.678;7.172;2023-02-01T12:27:10;8.20;99.90
24382;DHT22;12502;50.678;7.172;2023-02-01T12:43:46;8.20;99.90
24382;DHT22;12502;50.678;7.172;2023-02-01T12:54:21;8.10;99.90
24382;DHT22;12502;50.678;7.172;2023-02-01T12:59:37;8.20;99.90
24382;DHT22;12502;50.678;7.172;2023-02-01T13:05:01;8.20;99.90
24382;DHT22;12502;50.678;7.172;2023-02-01T13:10:38;8.20;99.90
24382;DHT22;12502;50.678;7.172;2023-02-01T13:15:44;8.20;99.90
24382;DHT22;12502;50.678;7.172;2023-02-01T13:21:00;8.10;99.90
24382;DHT22;12502;50.678;7.172;2023-02-01T13:26:04;8.20;99.90
24382;DHT22;12502;50.678;7.172;2023-02-01T13:37:23;8.10;99.90
24382;DHT22;12502;50.678;7.172;2023-02-01T13:42:42;8.10;99.90
24382;DHT22;12502;50.678;7.172;2023-02-01T13:47:48;8.00;99.90
24382;DHT22;12502;50.678;7.172;2023-02-01T13:53:00;8.00;99.90
24382;DHT22;12502;50.678;7.172;2023-02-01T14:03:11;7.90;99.90
24382;DHT22;12502;50.678;7.172;2023-02-01T14:08:40;7.80;99.90
24382;DHT22;12502;50.678;7.172;2023-02-01T14:13:42;7.70;99.90
24382;DHT22;12502;50.678;7.172;2023-02-01T14:23:56;7.70;99.90
24382;DHT22;12502;50.678;7.172;2023-02-01T14:29:02;7.70;99.90
24382;DHT22;12502;50.678;7.172;2023-02-01T14:44:48;7.70;99.90
24382;DHT22;12502;50.678;7.172;2023-02-01T15:00:52;7.90;99.90
24382;DHT22;12502;50.678;7.172;2023-02-01T15:05:59;7.90;99.90
24382;DHT22;12502;50.678;7.172;2023-02-01T15:11:06;7.90;99.90
24382;DHT22;12502;50.678;7.172;2023-02-01T15:16:15;7.90;99.90
24382;DHT22;12502;50.678;7.172;2023-02-01T15:21:23;8.00;99.90
24382;DHT22;12502;50.678;7.172;2023-02-01T15:26:33;8.00;99.90
24382;DHT22;12502;50.678;7.172;2023-02-01T15:31:44;8.00;99.90
24382;DHT22;12502;50.678;7.172;2023-02-01T15:36:47;8.00;99.90
24382;DHT22;12502;50.678;7.172;2023-02-01T15:42:11;8.00;99.90
24382;DHT22;12502;50.678;7.172;2023-02-01T15:47:20;8.10;99.90
24382;DHT22;12502;50.678;7.172;2023-02-01T15:52:34;8.10;99.90
24382;DHT22;12502;50.678;7.172;2023-02-01T15:57:40;8.10;99.90
24382;DHT22;12502;50.678;7.172;2023-02-01T16:02:50;8.00;99.90
24382;DHT22;12502;50.678;7.172;2023-02-01T16:13:06;8.00;99.90
24382;DHT22;12502;50.678;7.172;2023-02-01T16:18:09;7.90;99.90
24382;DHT22;12502;50.678;7.172;2023-02-01T16:23:11;7.80;99.90
24382;DHT22;12502;50.678;7.172;2023-02-01T16:28:12;7.70;99.90
24382;DHT22;12502;50.678;7.172;2023-02-01T16:33:18;7.50;99.90
24382;DHT22;12502;50.678;7.172;2023-02-01T16:38:23;7.40;99.90
24382;DHT22;12502;50.678;7.172;2023-02-01T16:43:25;7.30;99.90
24382;DHT22;12502;50.678;7.172;2023-02-01T16:48:30;7.20;99.90
24382;DHT22;12502;50.678;7.172;2023-02-01T16:53:32;7.10;99.90
24382;DHT22;12502;50.678;7.172;2023-02-01T16:58:49;7.00;99.90
24382;DHT22;12502;50.678;7.172;2023-02-01T17:03:51;6.90;99.90
24382;DHT22;12502;50.678;7.172;2023-02-01T17:08:55;6.80;99.90
24382;DHT22;12502;50.678;7.172;2023-02-01T17:14:09;6.80;99.90
24382;DHT22;12502;50.678;7.172;2023-02-01T17:19:17;6.70;99.90
24382;DHT22;12502;50.678;7.172;2023-02-01T17:24:23;6.60;99.90
24382;DHT22;12502;50.678;7.172;2023-02-01T17:29:27;6.60;99.90
24382;DHT22;12502;50.678;7.172;2023-02-01T17:34:30;6.50;99.90
24382;DHT22;12502;50.678;7.172;2023-02-01T17:39:32;6.50;99.90
24382;DHT22;12502;50.678;7.172;2023-02-01T17:44:56;6.50;99.90
24382;DHT22;12502;50.678;7.172;2023-02-01T17:49:58;6.40;99.90
24382;DHT22;12502;50.678;7.172;2023-02-01T17:54:59;6.40;99.90
24382;DHT22;12502;50.678;7.172;2023-02-01T18:00:02;6.40;99.90
24382;DHT22;12502;50.678;7.172;2023-02-01T18:05:40;6.40;99.90
24382;DHT22;12502;50.678;7.172;2023-02-01T18:10:43;6.40;99.90
24382;DHT22;12502;50.678;7.172;2023-02-01T18:15:45;6.40;99.90
24382;DHT22;12502;50.678;7.172;2023-02-01T18:20:48;6.40;99.90
24382;DHT22;12502;50.678;7.172;2023-02-01T18:25:51;6.40;99.90
24382;DHT22;12502;50.678;7.172;2023-02-01T18:30:53;6.40;99.90
24382;DHT22;12502;50.678;7.172;2023-02-01T18:35:55;6.40;99.90
24382;DHT22;12502;50.678;7.172;2023-02-01T18:40:56;6.40;99.90
24382;DHT22;12502;50.678;7.172;2023-02-01T18:45:58;6.40;99.90
24382;DHT22;12502;50.678;7.172;2023-02-01T18:51:00;6.40;99.90
24382;DHT22;12502;50.678;7.172;2023-02-01T18:56:03;6.40;99.90
24382;DHT22;12502;50.678;7.172;2023-02-01T19:01:16;6.50;99.90
24382;DHT22;12502;50.678;7.172;2023-02-01T19:06:20;6.50;99.90
24382;DHT22;12502;50.678;7.172;2023-02-01T19:11:22;6.50;99.90
24382;DHT22;12502;50.678;7.172;2023-02-01T19:16:24;6.50;99.90
24382;DHT22;12502;50.678;7.172;2023-02-01T19:21:25;6.50;99.90
24382;DHT22;12502;50.678;7.172;2023-02-01T19:26:27;6.50;99.90
24382;DHT22;12502;50.678;7.172;2023-02-01T19:31:29;6.60;99.90
24382;DHT22;12502;50.678;7.172;2023-02-01T19:36:31;6.60;99.90
24382;DHT22;12502;50.678;7.172;2023-02-01T19:41:33;6.60;99.90
24382;DHT22;12502;50.678;7.172;2023-02-01T19:46:35;6.70;99.90
24382;DHT22;12502;50.678;7.172;2023-02-01T19:51:38;6.70;99.90
24382;DHT22;12502;50.678;7.172;2023-02-01T19:56:42;6.70;99.90
24382;DHT22;12502;50.678;7.172;2023-02-01T20:01:45;6.70;99.90
24382;DHT22;12502;50.678;7.172;2023-02-01T20:06:48;6.70;99.90
24382;DHT22;12502;50.678;7.172;2023-02-01T20:11:51;6.80;99.90
24382;DHT22;12502;50.678;7.172;2023-02-01T20:16:55;6.90;99.90
24382;DHT22;12502;50.678;7.172;2023-02-01T20:21:57;6.90;99.90
24382;DHT22;12502;50.678;7.172;2023-02-01T20:27:00;7.00;99.90
24382;DHT22;12502;50.678;7.172;2023-02-01T20:32:02;7.00;99.90
24382;DHT22;12502;50.678;7.172;2023-02-01T20:37:04;7.00;99.90
24382;DHT22;12502;50.678;7.172;2023-02-01T20:42:06;7.10;99.90
24382;DHT22;12502;50.678;7.172;2023-02-01T20:47:08;7.00;99.90
24382;DHT22;12502;50.678;7.172;2023-02-01T20:52:10;7.20;99.90
24382;DHT22;12502;50.678;7.172;2023-02-01T20:57:12;7.20;99.90
24382;DHT22;12502;50.678;7.172;2023-02-01T21:02:14;7.20;99.90
24382;DHT22;12502;50.678;7.172;2023-02-01T21:07:16;7.20;99.90
24382;DHT22;12502;50.678;7.172;2023-02-01T21:12:17;7.30;99.90
24382;DHT22;12502;50.678;7.172;2023-02-01T21:17:19;7.20;99.90
24382;DHT22;12502;50.678;7.172;2023-02-01T21:22:21;7.30;99.90
24382;DHT22;12502;50.678;7.172;2023-02-01T21:27:23;7.30;99.90
24382;DHT22;12502;50.678;7.172;2023-02-01T21:32:25;7.30;99.90
24382;DHT22;12502;50.678;7.172;2023-02-01T21:37:26;7.30;99.90
24382;DHT22;12502;50.678;7.172;2023-02-01T21:42:28;7.40;99.90
24382;DHT22;12502;50.678;7.172;2023-02-01T21:47:31;7.40;99.90
24382;DHT22;12502;50.678;7.172;2023-02-01T21:52:35;7.40;99.90
24382;DHT22;12502;50.678;7.172;2023-02-01T21:57:39;7.40;99.90
24382;DHT22;12502;50.678;7.172;2023-02-01T22:02:41;7.40;99.90
24382;DHT22;12502;50.678;7.172;2023-02-01T22:07:43;7.50;99.90
24382;DHT22;12502;50.678;7.172;2023-02-01T22:12:45;7.50;99.90
24382;DHT22;12502;50.678;7.172;2023-02-01T22:17:46;7.60;99.90
24382;DHT22;12502;50.678;7.172;2023-02-01T22:22:48;7.60;99.90
24382;DHT22;12502;50.678;7.172;2023-02-01T22:27:50;7.60;99.90
24382;DHT22;12502;50.678;7.172;2023-02-01T22:33:12;7.60;99.90
24382;DHT22;12502;50.678;7.172;2023-02-01T22:38:15;7.60;99.90
24382;DHT22;12502;50.678;7.172;2023-02-01T22:43:16;7.70;99.90
24382;DHT22;12502;50.678;7.172;2023-02-01T22:48:19;7.70;99.90
24382;DHT22;12502;50.678;7.172;2023-02-01T22:53:20;7.70;99.90
24382;DHT22;12502;50.678;7.172;2023-02-01T22:58:22;7.70;99.90
24382;DHT22;12502;50.678;7.172;2023-02-01T23:03:24;7.70;99.90
24382;DHT22;12502;50.678;7.172;2023-02-01T23:08:26;7.70;99.90
24382;DHT22;12502;50.678;7.172;2023-02-01T23:13:28;7.70;99.90
24382;DHT22;12502;50.678;7.172;2023-02-01T23:18:30;7.70;99.90
24382;DHT22;12502;50.678;7.172;2023-02-01T23:23:32;7.70;99.90
24382;DHT22;12502;50.678;7.172;2023-02-01T23:28:34;7.70;99.90
24382;DHT22;12502;50.678;7.172;2023-02-01T23:33:36;7.80;99.90
24382;DHT22;12502;50.678;7.172;2023-02-01T23:38:38;7.80;99.90
24382;DHT22;12502;50.678;7.172;2023-02-01T23:43:40;7.80;99.90
24382;DHT22;12502;50.678;7.172;2023-02-01T23:49:02;7.80;99.90
24382;DHT22;12502;50.678;7.172;2023-02-01T23:54:05;7.80;99.90
24382;DHT22;12502;50.678;7.172;2023-02-01T23:59:18;7.80;99.90
